Terminal Aerodrome Forecast
Issued by NWS Jackson, MS

Home | Current Version | Previous Version | Text Only | Print | Product List | Glossary On
Versions: 1 2 3 4 5 6 7 8 9 10 11 12 13 14 15 16 17 18 19 20 21
600
FTUS44 KMEG 301724
TAFTUP
TAF
KTUP 301724Z 3018/3118 31007KT P6SM VCTS FEW020 SCT035CB
     FM302000 28005KT P6SM SCT045
     FM310000 00000KT P6SM SCT250
      TEMPO 3108/3112 2SM BR SCT003=

USA.gov is the U.S. government's official web portal to all federal, state and local government web resources and services.